Time;durP1;ratioP1;P1;durP2;ratioP2;P2;SDS_P1;SDS_P2;PMS_P1;PMS_P2;Temp;Humidity;BMP_temperature;BMP_pressure;BME280_temperature;BME280_humidity;BME280_pressure;Samples;Min_cycle;Max_cycle;Signal;HPM_P1;HPM_P2
2022/03/25 00:02:11;;;;;;;31.70;21.70;;;7.70;1.00;;;;;;5054400;28;20538;-59
2022/03/25 00:04:36;;;;;;;34.13;21.97;;;7.70;1.00;;;;;;5073499;28;20187;-62
2022/03/25 00:07:28;;;;;;;29.67;20.70;;;7.70;1.00;;;;;;5070716;28;20534;-61
2022/03/25 00:09:54;;;;;;;33.27;21.77;;;7.60;1.00;;;;;;5035328;28;20696;-62
2022/03/25 00:12:28;;;;;;;33.83;21.93;;;7.60;1.00;;;;;;5068248;28;20450;-59
2022/03/25 00:14:53;;;;;;;32.83;21.57;;;7.50;1.00;;;;;;5073181;28;20187;-59
2022/03/25 00:19:44;;;;;;;30.27;21.03;;;7.50;1.00;;;;;;5071730;28;20188;-60
2022/03/25 00:24:44;;;;;;;28.83;21.87;;;7.50;1.00;;;;;;5068043;28;20187;-59
2022/03/25 00:27:39;;;;;;;31.00;19.57;;;7.50;1.00;;;;;;5073611;28;20433;-60
2022/03/25 00:30:05;;;;;;;31.10;22.20;;;7.40;1.00;;;;;;5059840;28;20244;-60
2022/03/25 00:32:31;;;;;;;29.40;21.00;;;7.40;1.00;;;;;;5055728;28;20712;-60
2022/03/25 00:34:56;;;;;;;30.47;21.47;;;7.30;1.00;;;;;;5071679;28;20440;-61
2022/03/25 00:37:23;;;;;;;30.40;22.07;;;7.20;1.00;;;;;;5070340;28;20195;-59
2022/03/25 00:39:49;;;;;;;33.23;20.87;;;7.30;1.00;;;;;;5072798;28;20199;-60
2022/03/25 00:45:23;;;;;;;37.77;23.10;;;7.20;1.00;;;;;;5055225;28;20662;-59
2022/03/25 00:47:49;;;;;;;29.30;21.03;;;7.20;1.00;;;;;;5070607;28;20456;-59
2022/03/25 00:50:16;;;;;;;30.80;21.40;;;7.20;1.00;;;;;;5072928;28;20540;-61
2022/03/25 00:52:42;;;;;;;34.13;22.77;;;;;;;;;;5070336;28;20727;-60
2022/03/25 00:55:08;;;;;;;30.50;21.33;;;7.20;1.00;;;;;;5072306;28;20802;-60
2022/03/25 00:57:34;;;;;;;32.10;22.07;;;7.20;1.00;;;;;;5071904;28;20438;-60
2022/03/25 01:00:00;;;;;;;33.40;24.00;;;7.10;1.00;;;;;;5068813;28;20449;-60
2022/03/25 01:02:25;;;;;;;32.97;21.87;;;7.00;1.00;;;;;;5054957;28;20327;-59
2022/03/25 01:04:51;;;;;;;30.20;22.07;;;7.10;1.00;;;;;;5071424;28;20453;-59
2022/03/25 01:07:17;;;;;;;33.00;21.70;;;7.00;1.00;;;;;;5071876;28;20251;-61
2022/03/25 01:09:43;;;;;;;37.80;22.33;;;7.00;1.00;;;;;;5070578;28;20204;-61
2022/03/25 01:12:09;;;;;;;30.43;21.43;;;7.00;1.00;;;;;;5070620;28;20438;-61
2022/03/25 01:14:35;;;;;;;29.60;21.70;;;7.00;1.00;;;;;;5072273;28;20195;-60
2022/03/25 01:17:30;;;;;;;32.83;23.00;;;7.00;1.00;;;;;;5070339;28;20969;-60
2022/03/25 01:19:55;;;;;;;31.60;22.00;;;7.00;1.00;;;;;;5050878;28;20215;-61
2022/03/25 01:22:22;;;;;;;32.40;21.23;;;6.90;1.00;;;;;;5067370;28;20484;-61
2022/03/25 01:24:48;;;;;;;31.83;21.17;;;6.80;1.00;;;;;;5072334;28;20205;-60
2022/03/25 01:27:14;;;;;;;33.50;21.50;;;6.80;1.00;;;;;;5070048;28;20508;-61
2022/03/25 01:29:40;;;;;;;32.90;20.70;;;6.80;1.00;;;;;;5070988;28;20441;-61
2022/03/25 01:32:09;;;;;;;32.37;20.50;;;6.80;1.00;;;;;;5071464;28;20213;-60
2022/03/25 01:34:35;;;;;;;32.93;21.63;;;6.80;1.00;;;;;;5069168;28;20187;-63
2022/03/25 01:37:01;;;;;;;29.60;22.23;;;6.90;1.00;;;;;;5072268;28;20555;-60
2022/03/25 01:39:28;;;;;;;33.80;22.23;;;6.70;1.00;;;;;;5049652;28;20373;-61
2022/03/25 01:42:32;;;;;;;31.03;21.20;;;6.70;1.00;;;;;;5054184;28;20456;-61
2022/03/25 01:44:58;;;;;;;34.67;23.33;;;6.70;1.00;;;;;;4969233;28;20880;-60
2022/03/25 01:47:28;;;;;;;32.40;22.23;;;6.60;1.00;;;;;;5052560;28;20430;-60
2022/03/25 01:49:56;;;;;;;36.77;21.73;;;6.60;1.00;;;;;;5066850;28;20452;-61
2022/03/25 01:52:22;;;;;;;26.83;20.50;;;6.60;1.00;;;;;;5072042;28;20438;-61
2022/03/25 01:54:47;;;;;;;34.17;23.30;;;6.50;1.00;;;;;;5068586;28;20468;-60
2022/03/25 01:57:13;;;;;;;33.20;21.47;;;6.50;1.00;;;;;;5071785;28;20244;-61
2022/03/25 01:59:39;;;;;;;28.40;20.67;;;6.60;1.00;;;;;;5067747;28;20253;-61
2022/03/25 02:02:27;;;;;;;33.27;21.40;;;6.50;1.00;;;;;;5069747;28;20194;-61
2022/03/25 02:04:53;;;;;;;31.67;19.77;;;6.40;1.00;;;;;;5058437;28;20445;-59
2022/03/25 02:07:21;;;;;;;31.27;21.63;;;6.40;1.00;;;;;;5065419;28;20482;-60
2022/03/25 02:09:46;;;;;;;30.03;22.03;;;6.40;1.00;;;;;;5071284;28;20453;-59
2022/03/25 02:15:38;;;;;;;27.40;20.90;;;6.30;1.00;;;;;;5057908;28;20179;-59
2022/03/25 02:18:05;;;;;;;32.67;21.37;;;6.30;1.00;;;;;;5068271;28;20533;-59
2022/03/25 02:20:32;;;;;;;27.27;20.70;;;6.30;1.00;;;;;;5071109;28;20779;-61
2022/03/25 02:22:58;;;;;;;32.13;20.50;;;6.20;1.00;;;;;;5068379;28;20540;-60
2022/03/25 02:25:26;;;;;;;32.57;21.20;;;6.20;1.00;;;;;;5068704;28;21014;-61
2022/03/25 02:27:52;;;;;;;29.73;22.30;;;6.10;1.00;;;;;;5070986;28;20190;-60
2022/03/25 02:30:18;;;;;;;32.20;22.40;;;6.20;1.00;;;;;;5068197;28;20791;-62
2022/03/25 02:32:44;;;;;;;29.70;21.40;;;6.20;1.00;;;;;;5071154;28;20434;-60
2022/03/25 02:35:10;;;;;;;27.10;19.13;;;6.20;1.00;;;;;;5068688;28;20207;-61
2022/03/25 02:37:36;;;;;;;28.57;20.70;;;6.10;1.00;;;;;;5071046;28;20191;-60
2022/03/25 02:40:02;;;;;;;28.10;19.43;;;6.10;1.00;;;;;;5068758;28;20507;-60
2022/03/25 02:42:47;;;;;;;29.17;19.93;;;6.10;1.00;;;;;;5051924;28;20237;-61
2022/03/25 02:45:20;;;;;;;31.17;20.50;;;6.10;1.00;;;;;;5070866;28;20942;-60
2022/03/25 02:47:46;;;;;;;26.80;19.40;;;6.00;1.00;;;;;;5066443;28;20453;-59
2022/03/25 02:50:12;;;;;;;29.47;19.80;;;5.90;1.00;;;;;;5052733;28;20506;-62
2022/03/25 02:55:43;;;;;;;23.97;18.50;;;5.90;1.00;;;;;;5064721;28;20183;-60
2022/03/25 02:58:10;;;;;;;30.67;20.97;;;5.80;1.00;;;;;;5069586;28;20438;-61
2022/03/25 03:00:35;;;;;;;32.27;21.00;;;5.90;1.00;;;;;;5069073;28;20218;-61
2022/03/25 03:03:02;;;;;;;29.50;18.90;;;5.90;1.00;;;;;;5052217;28;20519;-59
2022/03/25 03:05:30;;;;;;;29.80;19.67;;;5.90;1.00;;;;;;5067491;28;20193;-59
2022/03/25 03:07:56;;;;;;;29.97;20.47;;;5.70;1.00;;;;;;5069971;28;20473;-59
2022/03/25 03:10:22;;;;;;;26.47;18.73;;;5.70;1.00;;;;;;5069850;28;20465;-60
2022/03/25 03:12:48;;;;;;;29.70;20.13;;;5.80;1.00;;;;;;5067368;28;20441;-62
2022/03/25 03:15:17;;;;;;;31.20;21.00;;;5.70;1.00;;;;;;5070238;28;20442;-60
2022/03/25 03:17:47;;;;;;;28.83;20.37;;;5.70;1.00;;;;;;5063695;28;20194;-60
2022/03/25 03:20:13;;;;;;;29.07;19.97;;;5.70;1.00;;;;;;5069368;28;20756;-59
2022/03/25 03:22:39;;;;;;;29.83;18.80;;;5.60;1.00;;;;;;5070286;28;20492;-60
2022/03/25 03:25:05;;;;;;;30.90;20.27;;;5.60;1.00;;;;;;5070185;28;20929;-60
2022/03/25 03:30:37;;;;;;;28.17;20.20;;;5.50;1.00;;;;;;5066797;28;20441;-59
2022/03/25 03:33:04;;;;;;;28.07;20.60;;;5.50;1.00;;;;;;5069876;28;20438;-62
2022/03/25 03:35:32;;;;;;;24.23;18.07;;;5.40;1.00;;;;;;5072686;28;20189;-59
2022/03/25 03:37:58;;;;;;;28.60;20.93;;;5.40;1.00;;;;;;5074612;28;20811;-61
2022/03/25 03:40:24;;;;;;;25.70;19.43;;;5.40;1.00;;;;;;5074132;28;20548;-61
2022/03/25 03:45:16;;;;;;;31.83;21.23;;;5.30;1.00;;;;;;5074163;28;20447;-61
2022/03/25 03:50:11;;;;;;;31.40;20.50;;;5.30;1.00;;;;;;5074179;28;20183;-61
2022/03/25 03:52:38;;;;;;;32.43;20.50;;;5.30;1.00;;;;;;5073497;28;21042;-60
2022/03/25 03:55:05;;;;;;;26.43;18.87;;;5.30;1.00;;;;;;5074091;28;20472;-61
2022/03/25 04:00:57;;;;;;;28.97;18.70;;;5.20;1.00;;;;;;5049480;28;20437;-62
2022/03/25 04:03:22;;;;;;;33.07;21.47;;;5.30;1.00;;;;;;5073594;28;20827;-61
2022/03/25 04:05:48;;;;;;;27.40;18.20;;;5.30;1.00;;;;;;5073795;28;20763;-60
2022/03/25 04:08:13;;;;;;;28.20;19.90;;;5.20;1.00;;;;;;5073641;28;20217;-60
2022/03/25 04:10:39;;;;;;;30.40;19.77;;;5.30;1.00;;;;;;5073816;28;20214;-59
2022/03/25 04:13:33;;;;;;;30.40;19.90;;;5.20;1.00;;;;;;5073844;28;20180;-61
2022/03/25 04:15:59;;;;;;;26.63;19.57;;;5.10;1.00;;;;;;5062859;28;20219;-60
2022/03/25 04:18:45;;;;;;;30.87;20.73;;;5.20;1.00;;;;;;5073336;28;20579;-59
2022/03/25 04:21:10;;;;;;;31.13;20.83;;;5.30;1.00;;;;;;5073692;28;20241;-61
2022/03/25 04:23:36;;;;;;;29.37;19.07;;;5.10;1.00;;;;;;5073256;28;20953;-59
2022/03/25 04:26:02;;;;;;;35.57;22.53;;;5.10;1.00;;;;;;5073570;28;20696;-60
2022/03/25 04:28:28;;;;;;;31.47;19.33;;;5.00;1.00;;;;;;5073351;28;20186;-61
2022/03/25 04:30:53;;;;;;;33.53;19.17;;;5.00;1.00;;;;;;5073328;28;20473;-60
2022/03/25 04:33:19;;;;;;;30.10;19.30;;;;;;;;;;5073397;28;20433;-61
2022/03/25 04:35:45;;;;;;;31.43;20.60;;;5.00;1.00;;;;;;5073094;28;20237;-61
2022/03/25 04:38:30;;;;;;;29.93;19.83;;;5.00;1.00;;;;;;5073372;28;20437;-61
2022/03/25 04:40:56;;;;;;;32.57;19.67;;;4.90;1.00;;;;;;5072956;28;20244;-60
2022/03/25 04:43:22;;;;;;;27.47;18.43;;;4.90;1.00;;;;;;5070526;28;20496;-60
2022/03/25 04:45:48;;;;;;;26.73;19.67;;;4.90;1.00;;;;;;5073052;28;21151;-61
2022/03/25 04:48:20;;;;;;;28.27;19.00;;;5.00;1.00;;;;;;5073214;28;20460;-60
2022/03/25 04:50:45;;;;;;;27.77;20.03;;;5.00;1.00;;;;;;5072792;28;20228;-62
2022/03/25 04:56:00;;;;;;;33.23;18.00;;;4.90;1.00;;;;;;5057756;28;20274;-59
2022/03/25 04:58:46;;;;;;;32.43;20.37;;;4.80;1.00;;;;;;5072930;28;20426;-61
2022/03/25 05:01:11;;;;;;;33.67;20.77;;;4.80;1.00;;;;;;5072676;28;20429;-60
2022/03/25 05:03:37;;;;;;;27.30;18.40;;;4.80;1.00;;;;;;5072036;28;20491;-61
2022/03/25 05:06:03;;;;;;;27.03;18.40;;;4.80;1.00;;;;;;5072629;28;20290;-61
2022/03/25 05:08:38;;;;;;;28.23;18.40;;;4.80;1.00;;;;;;5071907;28;20199;-59
2022/03/25 05:11:04;;;;;;;23.40;16.70;;;4.90;1.00;;;;;;5072320;28;20433;-60
2022/03/25 05:13:29;;;;;;;25.90;18.40;;;4.80;1.00;;;;;;5072338;28;20451;-61
2022/03/25 05:15:55;;;;;;;29.60;18.80;;;4.80;1.00;;;;;;5072521;28;20237;-63
2022/03/25 05:19:01;;;;;;;30.63;19.43;;;4.80;1.00;;;;;;5072390;28;20183;-59
2022/03/25 05:21:26;;;;;;;30.93;20.70;;;4.80;1.00;;;;;;5069408;28;20583;-60
2022/03/25 05:24:05;;;;;;;34.03;19.20;;;4.80;1.00;;;;;;5071920;28;20457;-60
2022/03/25 05:26:30;;;;;;;30.00;20.10;;;4.80;1.00;;;;;;5072012;28;20214;-61
2022/03/25 05:28:57;;;;;;;27.93;19.33;;;4.80;1.00;;;;;;5071658;28;20476;-59
2022/03/25 05:31:23;;;;;;;32.30;20.00;;;4.80;1.00;;;;;;5072071;28;20171;-60
2022/03/25 05:36:34;;;;;;;29.93;19.87;;;4.90;1.00;;;;;;5004827;28;20201;-60
2022/03/25 05:39:09;;;;;;;29.70;18.70;;;4.90;1.00;;;;;;5007103;28;20448;-61
2022/03/25 05:41:34;;;;;;;30.67;20.60;;;4.90;1.00;;;;;;5008737;28;20196;-61
2022/03/25 05:44:00;;;;;;;24.47;18.37;;;5.00;1.00;;;;;;5009451;28;20472;-61
2022/03/25 05:46:26;;;;;;;30.33;19.97;;;;;;;;;;5009896;28;20197;-62
2022/03/25 05:49:00;;;;;;;29.57;20.13;;;5.00;1.00;;;;;;5009519;28;20201;-60
2022/03/25 05:51:26;;;;;;;33.50;21.00;;;5.10;1.00;;;;;;5001137;28;20448;-59
2022/03/25 05:53:54;;;;;;;28.90;19.73;;;5.10;1.00;;;;;;4989211;28;21042;-60
2022/03/25 05:56:20;;;;;;;27.73;19.13;;;;;;;;;;4989742;28;20516;-60
2022/03/25 05:58:46;;;;;;;28.37;19.90;;;5.20;1.00;;;;;;4990013;28;20441;-59
2022/03/25 06:01:13;;;;;;;31.13;19.87;;;5.20;1.00;;;;;;4993284;28;20495;-60
2022/03/25 06:03:58;;;;;;;30.40;19.60;;;5.30;1.00;;;;;;5008458;28;20212;-60
2022/03/25 06:06:24;;;;;;;27.53;19.10;;;5.40;1.00;;;;;;5008462;28;20479;-60
2022/03/25 06:08:58;;;;;;;30.87;21.10;;;5.40;1.00;;;;;;5007530;28;20433;-59
2022/03/25 06:11:24;;;;;;;34.13;21.37;;;;;;;;;;4989634;28;20189;-62
2022/03/25 06:13:50;;;;;;;31.43;20.90;;;5.60;1.00;;;;;;5034831;28;20464;-61
2022/03/25 06:16:17;;;;;;;25.77;19.27;;;5.60;1.00;;;;;;5070908;28;20521;-60
2022/03/25 06:18:52;;;;;;;34.03;20.10;;;5.60;1.00;;;;;;5070689;28;20172;-61
2022/03/25 06:21:20;;;;;;;34.30;19.57;;;5.80;1.00;;;;;;5070870;28;20521;-61
2022/03/25 06:24:15;;;;;;;32.97;20.67;;;5.80;1.00;;;;;;5070860;28;20468;-62
2022/03/25 06:26:40;;;;;;;25.07;18.03;;;6.00;1.00;;;;;;5060277;28;20505;-62
2022/03/25 06:29:26;;;;;;;30.90;18.47;;;6.20;1.00;;;;;;5070276;28;20873;-63
2022/03/25 06:35:37;;;;;;;27.87;16.70;;;6.50;1.00;;;;;;4910908;29;20516;-61
2022/03/25 06:41:01;;;;;;;28.67;17.63;;;6.50;1.00;;;;;;5059695;28;20438;-61
2022/03/25 06:50:34;;;;;;;26.07;17.70;;;6.90;1.00;;;;;;4957815;28;20472;-60
2022/03/25 06:56:27;;;;;;;28.50;18.70;;;7.00;1.00;;;;;;5045519;28;20191;-61
2022/03/25 07:01:58;;;;;;;25.17;17.10;;;7.30;1.00;;;;;;5062960;28;20895;-62
2022/03/25 07:14:31;;;;;;;24.03;16.87;;;7.90;1.00;;;;;;4887318;28;20481;-61
2022/03/25 07:16:57;;;;;;;22.77;18.40;;;8.10;1.00;;;;;;5067119;28;20768;-62
2022/03/25 07:19:25;;;;;;;24.40;17.57;;;8.10;1.00;;;;;;5070078;28;20239;-62
2022/03/25 07:21:54;;;;;;;26.37;17.30;;;8.30;1.00;;;;;;5070090;28;20191;-60
2022/03/25 07:24:21;;;;;;;25.87;18.77;;;8.30;1.00;;;;;;5069925;28;20827;-60
2022/03/25 07:26:47;;;;;;;25.20;18.13;;;8.50;1.00;;;;;;5069969;28;20454;-63
2022/03/25 07:29:13;;;;;;;29.20;18.53;;;8.50;1.00;;;;;;5070157;28;20578;-60
2022/03/25 07:31:38;;;;;;;27.90;19.20;;;8.60;1.00;;;;;;5069844;28;20904;-61
2022/03/25 07:34:04;;;;;;;28.67;17.77;;;8.80;1.00;;;;;;5052002;28;20190;-62
2022/03/25 07:36:30;;;;;;;24.33;17.67;;;8.90;1.00;;;;;;5069947;28;20186;-60
2022/03/25 07:38:55;;;;;;;25.57;18.30;;;8.90;1.00;;;;;;5070273;28;20640;-61
2022/03/25 07:41:21;;;;;;;44.63;19.20;;;9.00;1.00;;;;;;5070146;28;20197;-63
2022/03/25 07:43:47;;;;;;;28.00;18.47;;;9.10;1.00;;;;;;5051895;28;20257;-60
2022/03/25 07:46:13;;;;;;;31.87;18.60;;;9.10;1.00;;;;;;5070276;28;20492;-61
2022/03/25 07:48:39;;;;;;;24.23;17.27;;;9.30;1.00;;;;;;5069923;28;20221;-62
2022/03/25 07:51:05;;;;;;;24.33;17.73;;;9.60;1.00;;;;;;5070028;28;20517;-61
2022/03/25 07:53:32;;;;;;;33.10;20.40;;;9.60;1.00;;;;;;5070167;28;20183;-61
2022/03/25 07:55:58;;;;;;;26.43;18.33;;;9.80;1.00;;;;;;5050879;28;20445;-60
2022/03/25 07:58:24;;;;;;;27.80;17.67;;;9.90;1.00;;;;;;5070256;28;20452;-60
2022/03/25 08:00:50;;;;;;;27.53;20.27;;;9.90;1.00;;;;;;5069766;28;20450;-62
2022/03/25 08:03:18;;;;;;;24.70;17.70;;;10.00;1.00;;;;;;5070056;28;20211;-61
2022/03/25 08:05:44;;;;;;;25.47;19.07;;;10.10;1.00;;;;;;5069676;28;20434;-62
2022/03/25 08:08:09;;;;;;;32.43;20.10;;;10.20;1.00;;;;;;5069645;28;20485;-61
2022/03/25 08:10:36;;;;;;;30.53;19.53;;;10.30;1.00;;;;;;5069747;28;20532;-62
2022/03/25 08:13:02;;;;;;;29.80;19.60;;;10.80;1.00;;;;;;5069844;28;20188;-61
2022/03/25 08:15:29;;;;;;;30.70;20.70;;;10.90;1.00;;;;;;5070237;28;20441;-61
2022/03/25 08:18:04;;;;;;;28.07;19.93;;;10.90;1.00;;;;;;5069612;28;20464;-61
2022/03/25 08:20:41;;;;;;;28.23;19.90;;;11.00;1.00;;;;;;5070500;28;20497;-61
2022/03/25 08:27:48;;;;;;;35.23;19.50;;;11.50;1.00;;;;;;5066742;28;20457;-64
2022/03/25 08:28:50;;;;;;;32.80;21.80;;;;;;;;;;5073461;28;20440;-62
2022/03/25 08:31:16;;;;;;;31.07;21.77;;;12.20;1.00;;;;;;5073335;28;20543;-62
2022/03/25 08:33:42;;;;;;;35.37;24.53;;;12.00;1.00;;;;;;5073228;28;20521;-62
2022/03/25 08:36:08;;;;;;;33.77;22.83;;;12.00;1.00;;;;;;5073216;28;20191;-62
2022/03/25 08:38:34;;;;;;;34.77;23.43;;;11.80;1.00;;;;;;5073451;28;20441;-62
2022/03/25 08:41:00;;;;;;;35.50;23.90;;;;;;;;;;5072949;28;20207;-62
2022/03/25 08:43:26;;;;;;;37.70;23.57;;;11.80;1.00;;;;;;5073227;28;20282;-63
2022/03/25 08:45:52;;;;;;;33.90;23.70;;;11.80;1.00;;;;;;5072858;28;20437;-62
2022/03/25 08:48:18;;;;;;;33.97;22.80;;;12.10;1.00;;;;;;5066684;28;20445;-63
2022/03/25 08:50:43;;;;;;;31.30;22.07;;;12.40;1.00;;;;;;5073195;28;20749;-61
2022/03/25 08:53:09;;;;;;;36.60;23.63;;;;;;;;;;5073046;28;20195;-60
2022/03/25 08:55:35;;;;;;;34.57;23.70;;;12.70;1.00;;;;;;5073138;28;20179;-60
2022/03/25 08:58:00;;;;;;;34.80;24.90;;;12.90;1.00;;;;;;5072746;28;20468;-62
2022/03/25 09:04:01;;;;;;;39.30;24.17;;;13.00;1.00;;;;;;4940026;28;20246;-62
2022/03/25 09:06:27;;;;;;;33.20;23.47;;;13.10;1.00;;;;;;5023184;28;20467;-62
2022/03/25 09:08:52;;;;;;;38.07;24.10;;;13.20;1.00;;;;;;5047236;28;20449;-62
2022/03/25 09:11:20;;;;;;;37.57;25.00;;;;;;;;;;5072625;28;20179;-61
2022/03/25 09:13:45;;;;;;;37.20;24.83;;;13.40;1.00;;;;;;5072913;28;20179;-62
2022/03/25 09:16:13;;;;;;;33.20;23.97;;;13.40;1.00;;;;;;5072330;28;20442;-63
2022/03/25 09:18:39;;;;;;;35.57;23.03;;;;;;;;;;5072637;28;20179;-62
2022/03/25 09:21:07;;;;;;;31.80;22.37;;;13.80;1.00;;;;;;5072595;28;20949;-63
2022/03/25 09:23:33;;;;;;;35.63;22.63;;;;;;;;;;5072236;28;20457;-61
2022/03/25 09:26:00;;;;;;;30.80;22.53;;;14.10;1.00;;;;;;5072526;28;20437;-62
2022/03/25 09:28:27;;;;;;;34.47;23.20;;;14.20;1.00;;;;;;5054186;28;20521;-63
2022/03/25 09:30:53;;;;;;;29.80;22.60;;;14.20;1.00;;;;;;5072515;28;20441;-61
2022/03/25 09:33:47;;;;;;;31.43;22.80;;;14.60;1.00;;;;;;5071153;28;20437;-63
2022/03/25 09:39:39;;;;;;;27.87;21.67;;;14.70;1.00;;;;;;5046006;28;20459;-63
2022/03/25 09:45:35;;;;;;;32.20;21.70;;;14.50;1.00;;;;;;4955333;28;20205;-63
2022/03/25 09:48:02;;;;;;;31.77;22.90;;;14.80;1.00;;;;;;5072186;28;20575;-64
2022/03/25 09:50:28;;;;;;;34.37;23.37;;;14.90;1.00;;;;;;5071658;28;20533;-62
2022/03/25 09:52:54;;;;;;;35.90;24.73;;;15.00;1.00;;;;;;5071739;28;20471;-63
2022/03/25 09:55:20;;;;;;;33.83;23.97;;;15.10;1.00;;;;;;5071718;28;20430;-62
2022/03/25 09:57:47;;;;;;;29.70;22.10;;;15.10;1.00;;;;;;5072041;28;20787;-62
2022/03/25 10:00:19;;;;;;;36.30;22.87;;;15.10;1.00;;;;;;5071487;28;20802;-64
2022/03/25 10:02:45;;;;;;;28.53;21.10;;;15.20;1.00;;;;;;5071497;28;21037;-63
2022/03/25 10:05:19;;;;;;;27.37;20.07;;;15.20;1.00;;;;;;5071120;28;20434;-63
2022/03/25 10:07:50;;;;;;;33.00;21.77;;;15.60;1.00;;;;;;5070761;28;20566;-64
2022/03/25 10:10:17;;;;;;;32.23;23.40;;;15.80;1.00;;;;;;5071396;28;20934;-63
2022/03/25 10:12:45;;;;;;;39.80;21.77;;;16.10;1.00;;;;;;5071386;28;20515;-63
2022/03/25 10:15:12;;;;;;;33.33;21.60;;;16.20;1.00;;;;;;5065582;28;20816;-63
2022/03/25 10:17:48;;;;;;;28.20;19.47;;;16.20;1.00;;;;;;5071110;28;20440;-62
2022/03/25 10:20:14;;;;;;;27.83;17.57;;;16.30;1.00;;;;;;5071321;28;20474;-62
2022/03/25 10:22:55;;;;;;;25.63;18.33;;;16.30;1.00;;;;;;5070876;28;20429;-63
2022/03/25 10:36:00;;;;;;;22.20;15.47;;;16.50;1.00;;;;;;4760081;30;20512;-63
2022/03/25 10:38:38;;;;;;;23.13;14.90;;;16.40;1.00;;;;;;4839399;29;20962;-63
2022/03/25 10:41:06;;;;;;;21.67;14.80;;;16.40;1.00;;;;;;4921934;29;20968;-63
2022/03/25 10:43:32;;;;;;;21.43;14.20;;;16.40;1.00;;;;;;4984084;28;21024;-62
2022/03/25 10:45:58;;;;;;;23.30;17.20;;;16.40;1.00;;;;;;4992048;28;20507;-62
2022/03/25 10:48:26;;;;;;;24.73;16.07;;;16.60;1.00;;;;;;5008480;28;20389;-61
2022/03/25 10:51:07;;;;;;;25.40;16.17;;;16.80;1.00;;;;;;5008587;28;20698;-62
2022/03/25 10:53:35;;;;;;;28.90;18.80;;;17.10;1.00;;;;;;5008902;28;20452;-63
2022/03/25 10:56:06;;;;;;;24.13;18.60;;;17.40;1.00;;;;;;5006989;28;20660;-61
2022/03/25 10:58:32;;;;;;;24.60;17.20;;;17.70;1.00;;;;;;5008443;28;20518;-62
2022/03/25 11:00:59;;;;;;;22.90;16.13;;;17.70;1.00;;;;;;5008053;28;20798;-61
2022/03/25 11:03:25;;;;;;;21.50;13.90;;;17.50;1.00;;;;;;5007812;28;20471;-61
2022/03/25 11:05:51;;;;;;;20.60;14.13;;;17.50;1.00;;;;;;5007658;28;20626;-62
2022/03/25 11:08:17;;;;;;;20.97;13.17;;;17.40;1.00;;;;;;5007929;28;20885;-61
2022/03/25 11:10:43;;;;;;;18.60;13.80;;;17.60;1.00;;;;;;5008205;28;21078;-63
2022/03/25 11:13:09;;;;;;;21.43;13.47;;;17.50;1.00;;;;;;5041982;28;20532;-62
2022/03/25 11:15:37;;;;;;;18.37;13.70;;;17.60;1.00;;;;;;5070585;28;20191;-62
2022/03/25 11:18:03;;;;;;;21.47;13.50;;;18.00;1.00;;;;;;5070037;28;20530;-62
2022/03/25 11:20:29;;;;;;;15.27;10.97;;;17.80;1.00;;;;;;5070178;28;20441;-63
2022/03/25 11:23:16;;;;;;;14.77;10.10;;;17.70;1.00;;;;;;5069681;28;20316;-64
2022/03/25 11:25:54;;;;;;;15.20;9.13;;;17.30;1.00;;;;;;5070291;28;20430;-62
2022/03/25 11:28:30;;;;;;;15.23;9.47;;;16.80;1.00;;;;;;5070242;28;20430;-62
2022/03/25 11:31:02;;;;;;;17.50;9.97;;;16.80;1.00;;;;;;5070052;28;20956;-62
2022/03/25 11:33:28;;;;;;;18.53;11.63;;;17.10;1.00;;;;;;5070022;28;20425;-63
2022/03/25 11:36:13;;;;;;;18.40;12.47;;;17.10;1.00;;;;;;5051843;28;20437;-63
2022/03/25 11:38:38;;;;;;;24.63;14.07;;;17.20;1.00;;;;;;5070101;28;21061;-63
2022/03/25 11:41:25;;;;;;;21.40;11.50;;;17.30;1.00;;;;;;5069793;28;20568;-63
2022/03/25 11:44:15;;;;;;;18.57;13.73;;;17.40;1.00;;;;;;5070020;28;20488;-62
2022/03/25 11:47:13;;;;;;;20.57;13.70;;;17.40;1.00;;;;;;5070176;28;20430;-63
2022/03/25 11:49:38;;;;;;;20.33;14.10;;;17.50;1.00;;;;;;5050406;28;20441;-62
2022/03/25 11:52:16;;;;;;;19.43;14.00;;;17.50;1.00;;;;;;5069467;28;20422;-63
2022/03/25 11:54:43;;;;;;;19.03;12.63;;;17.50;1.00;;;;;;5070188;28;20183;-64
2022/03/25 11:57:31;;;;;;;18.27;13.10;;;17.80;1.00;;;;;;5073334;28;20991;-63
2022/03/25 12:00:10;;;;;;;20.00;14.60;;;17.80;1.00;;;;;;5073876;28;20449;-62
2022/03/25 12:02:40;;;;;;;22.33;14.03;;;17.40;1.00;;;;;;5073103;28;20498;-64
2022/03/25 12:05:24;;;;;;;21.77;15.37;;;17.40;1.00;;;;;;5073350;28;20445;-64
2022/03/25 12:08:20;;;;;;;22.87;16.30;;;17.40;1.00;;;;;;5074254;28;20556;-65
2022/03/25 12:10:47;;;;;;;23.83;16.00;;;17.40;1.00;;;;;;5072435;28;20493;-61
2022/03/25 12:13:12;;;;;;;21.30;15.80;;;17.40;1.00;;;;;;5073513;28;20797;-61
2022/03/25 12:15:42;;;;;;;27.30;18.33;;;17.40;1.00;;;;;;5073965;28;20425;-61
2022/03/25 12:18:46;;;;;;;23.50;16.60;;;17.50;1.00;;;;;;5073495;28;20283;-61
2022/03/25 12:21:13;;;;;;;23.60;16.50;;;17.40;1.00;;;;;;5055644;28;20791;-61
2022/03/25 12:23:39;;;;;;;24.80;18.63;;;17.50;1.00;;;;;;5073655;28;20497;-62
2022/03/25 12:26:07;;;;;;;24.30;18.73;;;17.30;1.00;;;;;;5073410;28;20433;-63
2022/03/25 12:28:33;;;;;;;26.60;18.67;;;17.30;1.00;;;;;;5073343;28;20437;-62
2022/03/25 12:31:06;;;;;;;25.03;17.93;;;17.10;1.00;;;;;;5073014;28;20437;-64
2022/03/25 12:33:31;;;;;;;27.57;19.47;;;17.30;1.00;;;;;;5072939;28;20656;-63
2022/03/25 12:35:58;;;;;;;25.70;21.20;;;17.50;1.00;;;;;;5073275;28;20476;-63
2022/03/25 12:38:25;;;;;;;23.93;17.20;;;18.10;1.00;;;;;;5072862;28;20701;-62
2022/03/25 12:40:52;;;;;;;27.93;18.23;;;18.30;1.00;;;;;;5073467;28;20461;-63
2022/03/25 12:43:18;;;;;;;27.30;17.50;;;18.20;1.00;;;;;;5072800;28;21022;-63
2022/03/25 12:45:47;;;;;;;26.80;18.83;;;18.30;1.00;;;;;;5071937;28;20430;-64
2022/03/25 12:48:18;;;;;;;24.87;18.07;;;18.40;1.00;;;;;;5055934;28;20183;-63
2022/03/25 12:50:49;;;;;;;24.27;17.60;;;18.60;1.00;;;;;;5073315;28;20438;-62
2022/03/25 12:53:15;;;;;;;24.23;18.03;;;18.00;1.00;;;;;;5072879;28;20591;-63
2022/03/25 12:55:42;;;;;;;25.70;20.00;;;18.00;1.00;;;;;;5072586;28;20764;-63
2022/03/25 12:58:10;;;;;;;25.30;19.20;;;18.10;1.00;;;;;;5072839;28;20570;-64
2022/03/25 13:00:38;;;;;;;27.37;20.47;;;18.10;1.00;;;;;;5072618;28;20879;-63
2022/03/25 13:03:05;;;;;;;30.50;19.93;;;18.50;1.00;;;;;;5071123;28;20469;-62
2022/03/25 13:05:32;;;;;;;26.30;18.97;;;17.70;1.00;;;;;;5070916;28;20520;-63
2022/03/25 13:07:58;;;;;;;29.53;20.97;;;18.60;1.00;;;;;;5071491;28;20970;-63
2022/03/25 13:10:25;;;;;;;26.87;19.70;;;18.30;1.00;;;;;;5072574;28;20440;-64
2022/03/25 13:12:54;;;;;;;24.70;19.50;;;18.00;1.00;;;;;;5072592;28;20958;-63
2022/03/25 13:18:46;;;;;;;27.67;18.40;;;18.00;1.00;;;;;;4910999;29;20479;-62
2022/03/25 13:21:11;;;;;;;26.17;19.80;;;17.80;1.00;;;;;;5057152;28;20437;-64
2022/03/25 13:23:38;;;;;;;27.60;20.87;;;17.70;1.00;;;;;;5072263;28;20270;-63
2022/03/25 13:26:08;;;;;;;25.63;18.87;;;17.80;1.00;;;;;;5072464;28;20253;-62
2022/03/25 13:28:36;;;;;;;27.40;20.83;;;19.50;1.00;;;;;;5072313;28;20943;-62
2022/03/25 13:31:05;;;;;;;23.33;19.60;;;17.80;1.00;;;;;;5066041;28;20434;-63
2022/03/25 13:33:54;;;;;;;26.87;18.93;;;17.90;1.00;;;;;;5071968;28;20437;-64
2022/03/25 13:36:30;;;;;;;27.53;19.80;;;18.00;1.00;;;;;;5072389;28;20469;-63
2022/03/25 13:39:11;;;;;;;32.60;20.33;;;18.10;1.00;;;;;;5086922;28;20531;-63
2022/03/25 13:41:37;;;;;;;29.80;20.40;;;18.10;1.00;;;;;;5072145;28;20537;-63
2022/03/25 13:44:08;;;;;;;27.30;18.80;;;18.30;1.00;;;;;;5072230;28;20879;-64
2022/03/25 13:46:34;;;;;;;25.97;19.77;;;18.00;1.00;;;;;;5072020;28;20533;-62
2022/03/25 13:49:02;;;;;;;26.00;19.00;;;17.90;1.00;;;;;;5053898;28;20445;-62
2022/03/25 13:51:34;;;;;;;24.70;18.30;;;17.90;1.00;;;;;;5071855;28;20437;-62
2022/03/25 13:54:14;;;;;;;28.27;19.90;;;17.80;1.00;;;;;;5072035;28;20483;-63
2022/03/25 13:56:50;;;;;;;27.80;18.20;;;17.40;1.00;;;;;;5071728;28;20445;-61
2022/03/25 13:59:36;;;;;;;25.77;19.63;;;17.30;1.00;;;;;;5071878;28;20437;-63
2022/03/25 14:02:03;;;;;;;25.37;18.77;;;17.30;1.00;;;;;;5070722;28;20725;-63
2022/03/25 14:04:32;;;;;;;30.50;20.70;;;17.60;1.00;;;;;;5071678;28;20469;-60
2022/03/25 14:07:00;;;;;;;28.63;21.50;;;17.60;1.00;;;;;;5071184;28;20469;-62
2022/03/25 14:09:36;;;;;;;26.77;21.40;;;17.50;1.00;;;;;;5071462;28;20499;-62
2022/03/25 14:12:14;;;;;;;31.73;23.60;;;17.60;1.00;;;;;;5070810;28;20444;-60
2022/03/25 14:14:41;;;;;;;34.97;23.67;;;17.60;1.00;;;;;;5071246;28;20437;-61
2022/03/25 14:17:10;;;;;;;29.33;21.90;;;17.60;1.00;;;;;;5071158;28;20429;-62
2022/03/25 14:19:36;;;;;;;30.83;22.80;;;17.90;1.00;;;;;;5070808;28;20441;-62
2022/03/25 14:22:01;;;;;;;31.10;21.93;;;17.90;1.00;;;;;;5070910;28;20924;-61
2022/03/25 14:24:30;;;;;;;33.13;24.20;;;17.80;1.00;;;;;;5071243;28;20461;-61
2022/03/25 14:26:57;;;;;;;29.07;21.87;;;17.80;1.00;;;;;;5070817;28;20660;-62